Terminal Aerodrome Forecast
Issued by NWS Mt. Holly, NJ

Home | Current Version | Previous Version | Text Only | Print | Product List | Glossary On
Versions: 1 2 3 4 5 6 7 8 9 10 11 12 13 14 15 16 17 18 19 20 21 22 23 24 25 26 27 28 29 30 31 32 33 34 35 36 37 38 39 40 41 42 43 44
000
FTAK31 PANC 260626 AAA
TAFABE
TAF AMD
PABE 260626Z 2606/2706 24015KT P6SM -SHSN SCT007 BKN010 OVC015
      TEMPO 2606/2609 5SM -SHSN BKN007 OVC010
     FM260900 22010KT P6SM VCFG SCT005 BKN008 OVC012
     FM261200 24010KT P6SM VCFG SCT003 BKN005 OVC012
     FM261500 28011KT P6SM SCT005 BKN012 BKN025
     FM261800 27007KT P6SM BCFG FEW003 SCT025 BKN035
     FM270200 03005KT P6SM SCT035 BKN100=

USA.gov is the U.S. government's official web portal to all federal, state and local government web resources and services.